Time;durP1;ratioP1;P1;durP2;ratioP2;P2;SDS_P1;SDS_P2;PMS_P1;PMS_P2;Temp;Humidity;BMP_temperature;BMP_pressure;BME280_temperature;BME280_humidity;BME280_pressure;Samples;Min_cycle;Max_cycle;Signal;HPM_P1;HPM_P2
2023/06/12 00:01:01;;;;;;;5.35;3.55;;;16.70;99.90;;;;;;2602946;54;20819;31
2023/06/12 00:03:36;;;;;;;5.40;3.90;;;16.60;99.90;;;;;;2603046;54;20883;31
2023/06/12 00:06:11;;;;;;;6.40;3.50;;;16.50;99.90;;;;;;2621599;47;20037;31
2023/06/12 00:08:46;;;;;;;5.60;3.58;;;16.50;99.90;;;;;;2602664;54;20813;31
2023/06/12 00:11:20;;;;;;;5.30;4.25;;;16.40;99.90;;;;;;2602999;54;20089;31
2023/06/12 00:13:56;;;;;;;8.48;3.25;;;16.40;99.90;;;;;;2602999;54;20838;31
2023/06/12 00:16:31;;;;;;;4.75;3.30;;;16.40;99.90;;;;;;2602926;54;20868;31
2023/06/12 00:19:06;;;;;;;6.03;3.40;;;16.40;99.90;;;;;;2602851;54;20030;31
2023/06/12 00:21:41;;;;;;;8.40;3.90;;;16.30;99.90;;;;;;2602926;54;20498;31
2023/06/12 00:24:15;;;;;;;6.75;3.63;;;16.20;99.90;;;;;;2602470;54;20865;31
2023/06/12 00:26:50;;;;;;;5.05;3.70;;;16.20;99.90;;;;;;2602580;54;20054;31
2023/06/12 00:29:26;;;;;;;8.32;4.22;;;16.20;99.90;;;;;;2602719;54;20924;31
2023/06/12 00:32:02;;;;;;;6.78;3.65;;;16.20;99.90;;;;;;2602620;54;20035;31
2023/06/12 00:34:37;;;;;;;5.78;4.00;;;16.20;99.90;;;;;;2602708;54;20831;31
2023/06/12 00:37:12;;;;;;;8.18;4.15;;;16.10;99.90;;;;;;2602995;54;20805;31
2023/06/12 00:39:47;;;;;;;6.80;4.00;;;16.10;99.90;;;;;;2602714;54;20027;31
2023/06/12 00:42:22;;;;;;;4.35;3.80;;;16.10;99.90;;;;;;2602871;54;20026;31
2023/06/12 00:44:56;;;;;;;6.05;3.88;;;16.00;99.90;;;;;;2621046;47;20889;31
2023/06/12 00:47:33;;;;;;;7.88;4.43;;;16.00;99.90;;;;;;2602584;54;20022;31
2023/06/12 00:50:12;;;;;;;6.07;4.15;;;15.90;99.90;;;;;;2602646;54;20084;31
2023/06/12 00:52:49;;;;;;;6.43;4.47;;;15.90;99.90;;;;;;2602570;54;20034;31
2023/06/12 00:55:24;;;;;;;8.40;4.45;;;15.80;99.90;;;;;;2603303;54;20495;31
2023/06/12 00:57:59;;;;;;;5.65;4.50;;;15.80;99.90;;;;;;2603488;54;20575;31
2023/06/12 01:00:38;;;;;;;6.20;5.00;;;15.70;99.90;;;;;;2603551;54;20825;31
2023/06/12 01:03:16;;;;;;;8.95;4.38;;;15.60;99.90;;;;;;2603526;54;20034;31
2023/06/12 01:05:52;;;;;;;9.82;5.28;;;15.60;99.90;;;;;;2603432;54;20038;31
2023/06/12 01:08:31;;;;;;;7.28;4.70;;;15.50;99.90;;;;;;2622205;46;20030;31
2023/06/12 01:11:08;;;;;;;6.63;4.72;;;15.50;99.90;;;;;;2603339;54;20096;31
2023/06/12 01:13:43;;;;;;;6.40;4.15;;;15.40;99.90;;;;;;2621807;46;20935;31
2023/06/12 01:16:17;;;;;;;6.10;4.60;;;15.40;99.90;;;;;;2603424;54;20108;31
2023/06/12 01:18:55;;;;;;;8.63;5.45;;;15.40;99.90;;;;;;2720365;39;20442;31
2023/06/12 01:21:32;;;;;;;6.30;4.65;;;15.30;99.90;;;;;;2603316;54;20079;31
2023/06/12 01:24:31;;;;;;;9.63;4.47;;;15.30;99.90;;;;;;2603310;54;20030;31
2023/06/12 01:27:06;;;;;;;11.20;5.22;;;15.30;99.90;;;;;;2603455;54;20508;31
2023/06/12 01:29:59;;;;;;;6.37;4.67;;;15.20;99.90;;;;;;2603168;54;20022;31
2023/06/12 01:32:37;;;;;;;8.03;4.40;;;15.20;99.90;;;;;;2603500;54;20726;31
2023/06/12 01:35:16;;;;;;;6.22;4.65;;;15.20;99.90;;;;;;2603317;54;20581;31
2023/06/12 01:37:56;;;;;;;6.00;4.68;;;15.20;99.90;;;;;;2603444;54;20022;31
2023/06/12 01:40:33;;;;;;;7.05;5.10;;;15.10;99.90;;;;;;2603407;54;20053;31
2023/06/12 01:43:08;;;;;;;6.75;4.60;;;15.00;99.90;;;;;;2621835;46;20027;31
2023/06/12 01:45:45;;;;;;;6.38;4.65;;;15.00;99.90;;;;;;2603134;54;20175;31
2023/06/12 01:48:22;;;;;;;8.23;5.13;;;15.00;99.90;;;;;;2603185;54;20746;31
2023/06/12 01:50:58;;;;;;;5.70;5.00;;;15.00;99.90;;;;;;2603178;54;19982;31
2023/06/12 01:53:33;;;;;;;5.20;4.35;;;14.90;99.90;;;;;;2603349;54;20037;31
2023/06/12 01:56:14;;;;;;;5.80;4.70;;;14.90;99.90;;;;;;2603260;54;20041;31
2023/06/12 01:58:49;;;;;;;7.00;4.90;;;14.90;99.90;;;;;;2603424;54;20142;31
2023/06/12 02:01:45;;;;;;;5.43;4.83;;;14.80;99.90;;;;;;2603264;54;20023;31
2023/06/12 02:04:22;;;;;;;6.70;5.00;;;14.80;99.90;;;;;;2603323;54;20050;31
2023/06/12 02:06:59;;;;;;;5.60;4.75;;;14.70;99.90;;;;;;2602925;54;20249;31
2023/06/12 02:09:35;;;;;;;5.65;4.63;;;14.70;99.90;;;;;;2603049;54;20771;31
2023/06/12 02:12:11;;;;;;;6.75;4.88;;;14.70;99.90;;;;;;2603214;54;20027;31
2023/06/12 02:14:47;;;;;;;;;;;14.60;99.90;;;;;;2622134;46;20917;31
2023/06/12 02:17:21;;;;;;;7.70;4.55;;;14.60;99.90;;;;;;2603233;54;20728;31
2023/06/12 02:19:59;;;;;;;4.63;4.13;;;14.60;99.90;;;;;;2602992;54;20108;31
2023/06/12 02:22:34;;;;;;;9.10;4.40;;;14.60;99.90;;;;;;2603259;54;20038;31
2023/06/12 02:25:10;;;;;;;7.10;5.40;;;14.50;99.90;;;;;;2603003;54;20944;31
2023/06/12 02:27:44;;;;;;;;;;;14.50;99.90;;;;;;2622111;46;20764;31
2023/06/12 02:30:19;;;;;;;5.57;4.97;;;14.40;99.90;;;;;;2621902;46;20727;31
2023/06/12 02:32:54;;;;;;;6.55;4.50;;;14.40;99.90;;;;;;2621694;46;20510;31
2023/06/12 02:35:32;;;;;;;6.67;5.10;;;14.40;99.90;;;;;;2719973;39;20421;31
2023/06/12 02:38:07;;;;;;;7.85;5.43;;;14.40;99.90;;;;;;2602934;54;20788;31
2023/06/12 02:40:42;;;;;;;6.30;5.60;;;14.30;99.90;;;;;;2603141;54;20026;31
2023/06/12 02:43:16;;;;;;;7.10;5.15;;;14.30;99.90;;;;;;2603165;54;20066;31
2023/06/12 02:45:51;;;;;;;6.93;6.13;;;14.30;99.90;;;;;;2621456;46;20592;31
2023/06/12 02:48:26;;;;;;;8.50;5.50;;;14.20;99.90;;;;;;2603230;54;20784;31
2023/06/12 02:51:03;;;;;;;7.00;5.70;;;14.20;99.90;;;;;;2602990;54;20913;31
2023/06/12 02:53:38;;;;;;;7.80;5.50;;;14.10;99.90;;;;;;2602911;54;20540;31
2023/06/12 02:56:13;;;;;;;8.45;5.88;;;14.10;99.90;;;;;;2603005;54;20814;31
2023/06/12 02:58:48;;;;;;;10.88;5.90;;;14.10;99.90;;;;;;2602955;54;20584;31
2023/06/12 03:01:21;;;;;;;7.20;5.40;;;14.10;99.90;;;;;;2791358;31;22437;31
2023/06/12 03:03:56;;;;;;;8.40;5.60;;;14.10;99.90;;;;;;2621373;46;20868;31
2023/06/12 03:06:35;;;;;;;8.82;5.63;;;14.00;99.90;;;;;;2602939;54;21012;31
2023/06/12 03:09:11;;;;;;;10.20;6.50;;;14.00;99.90;;;;;;2603218;54;20038;31
2023/06/12 03:11:45;;;;;;;;;;;14.00;99.90;;;;;;2603306;54;20800;31
2023/06/12 03:14:24;;;;;;;10.40;5.32;;;14.00;99.90;;;;;;2602807;54;19956;31
2023/06/12 03:16:58;;;;;;;6.37;5.30;;;14.00;99.90;;;;;;2701313;39;20395;31
2023/06/12 03:19:34;;;;;;;6.75;5.00;;;14.00;99.90;;;;;;2621347;46;20899;31
2023/06/12 03:22:12;;;;;;;6.63;5.30;;;14.10;99.90;;;;;;2603054;54;20858;31
2023/06/12 03:24:53;;;;;;;7.60;5.85;;;14.10;99.90;;;;;;2602807;54;20049;31
2023/06/12 03:27:29;;;;;;;8.10;5.93;;;14.20;99.90;;;;;;2621343;46;20139;31
2023/06/12 03:30:05;;;;;;;9.30;6.47;;;14.30;99.90;;;;;;2602936;54;20759;31
2023/06/12 03:32:40;;;;;;;7.83;5.83;;;14.40;99.90;;;;;;2602948;54;21082;31
2023/06/12 03:35:16;;;;;;;9.75;6.13;;;14.40;99.90;;;;;;2602728;54;20038;31
2023/06/12 03:37:58;;;;;;;12.15;6.22;;;14.60;99.90;;;;;;2603126;54;20864;31
2023/06/12 03:40:33;;;;;;;8.43;5.15;;;14.70;99.90;;;;;;2602921;54;20786;31
2023/06/12 03:43:08;;;;;;;10.25;6.20;;;14.90;99.90;;;;;;2602756;54;20891;31
2023/06/12 03:45:45;;;;;;;7.15;6.22;;;15.00;99.90;;;;;;2621451;46;21202;31
2023/06/12 03:48:20;;;;;;;8.73;5.20;;;15.10;99.90;;;;;;2602707;54;20108;31
2023/06/12 03:50:54;;;;;;;6.60;5.30;;;15.20;99.90;;;;;;2602898;54;20873;31
2023/06/12 03:53:32;;;;;;;6.50;4.90;;;15.30;99.90;;;;;;2602704;54;20243;31
2023/06/12 03:56:08;;;;;;;10.20;6.40;;;15.50;99.90;;;;;;2602803;54;21358;31
2023/06/12 03:58:43;;;;;;;7.55;5.05;;;15.70;99.90;;;;;;2602079;54;21151;31
2023/06/12 04:01:18;;;;;;;6.70;6.00;;;15.80;99.90;;;;;;2602722;54;20854;31
2023/06/12 04:03:53;;;;;;;5.93;5.23;;;15.90;99.90;;;;;;2621318;47;20869;31
2023/06/12 04:06:29;;;;;;;6.13;5.22;;;16.00;99.90;;;;;;2602650;54;20760;31
2023/06/12 04:09:07;;;;;;;7.88;5.82;;;16.20;99.90;;;;;;2621345;47;20873;31
2023/06/12 04:11:42;;;;;;;7.93;5.65;;;16.30;99.90;;;;;;2701410;39;20430;31
2023/06/12 04:14:17;;;;;;;7.00;6.30;;;16.50;99.90;;;;;;2602757;54;20868;31
2023/06/12 04:16:52;;;;;;;10.10;5.95;;;16.70;99.90;;;;;;2602419;54;20027;31
2023/06/12 04:19:27;;;;;;;8.48;6.10;;;16.80;99.90;;;;;;2602519;54;20889;31
2023/06/12 04:22:03;;;;;;;9.32;5.55;;;17.00;99.90;;;;;;2602606;54;20806;31
2023/06/12 04:24:42;;;;;;;6.43;5.25;;;17.10;99.90;;;;;;2602551;54;20073;31
2023/06/12 04:27:17;;;;;;;9.23;5.65;;;17.20;99.90;;;;;;2602645;54;20905;31
2023/06/12 04:29:53;;;;;;;11.60;5.90;;;17.40;99.90;;;;;;2603199;54;20031;31
2023/06/12 04:32:29;;;;;;;6.07;5.05;;;17.50;99.90;;;;;;2603479;54;20889;31
2023/06/12 04:35:03;;;;;;;6.47;5.40;;;17.70;99.90;;;;;;2702211;39;22505;31
2023/06/12 04:37:40;;;;;;;9.48;5.55;;;18.00;99.90;;;;;;2603673;54;20841;31
2023/06/12 04:40:20;;;;;;;9.88;5.40;;;18.00;99.90;;;;;;2603507;54;20096;31
2023/06/12 04:42:56;;;;;;;7.53;5.30;;;18.20;99.90;;;;;;2603363;54;20030;31
2023/06/12 04:45:32;;;;;;;9.68;5.50;;;18.30;99.90;;;;;;2603488;54;22647;31
2023/06/12 04:48:08;;;;;;;8.90;5.43;;;18.50;99.90;;;;;;2603329;54;20030;31
2023/06/12 04:50:47;;;;;;;6.60;5.63;;;18.60;99.90;;;;;;2603394;54;20026;31
2023/06/12 04:53:29;;;;;;;7.68;5.10;;;18.70;99.90;;;;;;2603357;54;20897;31
2023/06/12 04:56:12;;;;;;;12.35;5.45;;;18.90;99.90;;;;;;2621999;46;20034;31
2023/06/12 04:58:49;;;;;;;7.50;4.95;;;19.10;99.90;;;;;;2603377;54;20072;31
2023/06/12 05:01:25;;;;;;;9.00;4.53;;;19.30;99.90;;;;;;2603212;54;20026;31
2023/06/12 05:04:01;;;;;;;9.30;5.22;;;19.50;99.90;;;;;;2603291;54;20788;31
2023/06/12 05:06:37;;;;;;;6.67;5.20;;;19.70;99.90;;;;;;2603250;54;20163;31
2023/06/12 05:09:12;;;;;;;5.97;4.80;;;19.80;99.90;;;;;;2603293;54;20077;31
2023/06/12 05:11:49;;;;;;;7.50;4.60;;;20.00;99.90;;;;;;2603356;54;20026;31
2023/06/12 05:14:25;;;;;;;5.53;4.10;;;20.00;99.90;;;;;;2603546;54;21395;31
2023/06/12 05:17:00;;;;;;;7.75;4.60;;;20.10;99.90;;;;;;2603231;54;20820;31
2023/06/12 05:19:35;;;;;;;;;;;20.20;99.90;;;;;;2603431;54;21366;31
2023/06/12 05:22:10;;;;;;;7.25;4.80;;;20.40;99.90;;;;;;2603277;54;19941;31
2023/06/12 05:24:43;;;;;;;8.60;4.35;;;20.50;99.90;;;;;;2603426;54;22340;31
2023/06/12 05:27:21;;;;;;;5.55;4.38;;;20.80;99.90;;;;;;2603251;54;20858;31
2023/06/12 05:29:57;;;;;;;6.93;4.68;;;20.90;99.90;;;;;;2603392;54;20858;31
2023/06/12 05:32:32;;;;;;;13.15;4.75;;;21.00;99.90;;;;;;2621605;46;20085;31
2023/06/12 05:35:09;;;;;;;8.93;4.43;;;21.10;99.90;;;;;;2603355;54;20027;31
2023/06/12 05:37:44;;;;;;;7.20;4.00;;;21.30;99.90;;;;;;2603168;54;20053;31
2023/06/12 05:40:20;;;;;;;7.80;3.80;;;21.40;99.90;;;;;;2772473;31;20682;31
2023/06/12 05:42:59;;;;;;;8.95;4.55;;;21.60;99.90;;;;;;2621485;47;20905;31
2023/06/12 05:45:36;;;;;;;7.05;3.95;;;21.80;99.90;;;;;;2603285;54;20084;31
2023/06/12 05:48:12;;;;;;;5.85;4.07;;;22.00;99.90;;;;;;2603256;54;20030;31
2023/06/12 05:50:47;;;;;;;6.60;4.10;;;22.10;99.90;;;;;;2603272;54;20930;31
2023/06/12 05:53:22;;;;;;;7.32;4.40;;;22.20;99.90;;;;;;2603285;54;20885;31
2023/06/12 05:55:57;;;;;;;7.03;3.90;;;22.40;99.90;;;;;;2603024;54;20777;31
2023/06/12 05:58:39;;;;;;;8.93;3.85;;;22.60;99.90;;;;;;2603040;54;20034;31
2023/06/12 06:01:16;;;;;;;4.47;3.53;;;22.80;99.90;;;;;;2621163;46;20101;31
2023/06/12 06:04:00;;;;;;;6.45;4.07;;;22.80;99.90;;;;;;2603286;54;20027;31
2023/06/12 06:06:38;;;;;;;7.85;4.05;;;23.10;99.90;;;;;;2621508;46;20053;31
2023/06/12 06:09:16;;;;;;;10.13;4.22;;;23.20;99.90;;;;;;2603133;54;20685;31
2023/06/12 06:11:52;;;;;;;7.13;3.95;;;23.30;99.90;;;;;;2603121;54;20030;31
2023/06/12 06:14:31;;;;;;;7.47;4.27;;;23.40;99.90;;;;;;2602906;54;20027;31
2023/06/12 06:17:06;;;;;;;6.72;3.95;;;23.40;99.90;;;;;;2602912;54;20849;31
2023/06/12 06:19:41;;;;;;;6.30;3.60;;;23.50;99.90;;;;;;2602948;54;20037;31
2023/06/12 06:22:17;;;;;;;8.15;4.10;;;23.50;99.90;;;;;;2603195;54;20054;31
2023/06/12 06:24:54;;;;;;;7.32;3.97;;;23.60;99.90;;;;;;2603113;54;20931;31
2023/06/12 06:27:29;;;;;;;7.03;3.40;;;23.60;99.90;;;;;;2602935;54;20038;31
2023/06/12 06:30:08;;;;;;;8.83;3.53;;;23.70;99.90;;;;;;2603031;54;21385;31
2023/06/12 06:32:42;;;;;;;6.30;3.50;;;23.70;99.90;;;;;;2603163;54;21028;31
2023/06/12 06:35:17;;;;;;;5.07;3.92;;;23.80;99.90;;;;;;2701451;39;21519;31
2023/06/12 06:37:52;;;;;;;5.75;3.97;;;24.00;99.90;;;;;;2602681;54;20727;31
2023/06/12 06:40:28;;;;;;;7.07;3.20;;;24.20;99.90;;;;;;2621660;46;20090;31
2023/06/12 06:43:03;;;;;;;5.15;3.30;;;24.40;99.90;;;;;;2602603;54;20038;31
2023/06/12 06:45:52;;;;;;;6.43;3.72;;;24.40;99.90;;;;;;2621688;46;20030;31
2023/06/12 06:48:27;;;;;;;8.23;3.13;;;24.60;99.90;;;;;;2602960;54;20885;31
2023/06/12 06:51:02;;;;;;;9.93;3.22;;;24.70;99.90;;;;;;2603014;54;20784;31
2023/06/12 06:53:37;;;;;;;4.85;3.20;;;24.80;99.90;;;;;;2602710;54;20789;31
2023/06/12 06:56:13;;;;;;;5.43;2.55;;;25.00;99.90;;;;;;2602997;54;21411;31
2023/06/12 06:58:48;;;;;;;9.52;3.17;;;25.10;99.90;;;;;;2603133;54;20894;31
2023/06/12 07:01:27;;;;;;;6.97;3.10;;;25.30;99.90;;;;;;2701257;39;21293;31
2023/06/12 07:04:02;;;;;;;5.75;2.70;;;25.30;99.90;;;;;;2602859;54;20053;31
2023/06/12 07:06:37;;;;;;;4.25;2.40;;;25.40;99.90;;;;;;2621352;46;20108;31
2023/06/12 07:09:14;;;;;;;7.17;3.10;;;25.40;99.90;;;;;;2603010;54;20026;31
2023/06/12 07:11:48;;;;;;;4.93;2.83;;;25.50;99.90;;;;;;2602831;54;20807;31
2023/06/12 07:14:23;;;;;;;3.50;2.50;;;25.50;99.70;;;;;;2603122;54;20874;31
2023/06/12 07:17:01;;;;;;;3.65;2.20;;;25.60;98.00;;;;;;2701253;39;20446;31
2023/06/12 07:19:36;;;;;;;4.80;2.40;;;25.70;95.90;;;;;;2602802;54;20089;31
2023/06/12 07:22:12;;;;;;;2.85;2.30;;;25.70;96.40;;;;;;2602928;54;20046;31
2023/06/12 07:24:47;;;;;;;4.57;2.47;;;25.70;97.30;;;;;;2621129;46;20713;31
2023/06/12 07:27:22;;;;;;;7.45;2.50;;;25.70;96.50;;;;;;2602711;54;20030;31
2023/06/12 07:29:55;;;;;;;4.72;1.85;;;25.90;95.50;;;;;;2621197;46;21186;31
2023/06/12 07:32:35;;;;;;;6.63;2.40;;;26.10;94.80;;;;;;2701193;39;20517;31
2023/06/12 07:35:12;;;;;;;3.60;1.90;;;26.10;93.20;;;;;;2701347;39;20502;31
2023/06/12 07:37:49;;;;;;;3.17;1.77;;;26.20;91.50;;;;;;2602810;54;20731;31
2023/06/12 07:40:25;;;;;;;5.50;1.98;;;26.30;88.70;;;;;;2602980;54;20089;31
2023/06/12 07:43:00;;;;;;;4.57;1.93;;;26.30;87.10;;;;;;2602749;54;20624;31
2023/06/12 07:45:35;;;;;;;3.97;1.63;;;26.30;85.40;;;;;;2603048;54;21320;31
2023/06/12 07:48:13;;;;;;;;;;;26.30;83.70;;;;;;2602952;54;20932;31
2023/06/12 07:50:50;;;;;;;2.72;1.88;;;26.20;81.90;;;;;;2772491;31;20544;31
2023/06/12 07:53:24;;;;;;;3.95;1.85;;;26.20;82.40;;;;;;2602761;54;20030;31
2023/06/12 07:56:17;;;;;;;5.25;2.20;;;26.10;82.30;;;;;;2602789;54;21013;31
2023/06/12 07:58:56;;;;;;;2.25;1.50;;;26.20;79.10;;;;;;2602682;54;20085;31
2023/06/12 08:01:34;;;;;;;3.55;1.80;;;26.10;80.50;;;;;;2602591;54;20131;31
2023/06/12 08:04:13;;;;;;;3.80;1.63;;;25.60;78.70;;;;;;2602984;54;20055;31
2023/06/12 08:06:48;;;;;;;6.68;1.83;;;25.40;77.90;;;;;;2603377;54;21136;31
2023/06/12 08:09:30;;;;;;;4.22;1.83;;;25.30;80.00;;;;;;2603630;54;20018;31
2023/06/12 08:12:05;;;;;;;5.13;1.90;;;25.10;81.90;;;;;;2603335;54;20715;31
2023/06/12 08:14:40;;;;;;;4.47;1.73;;;25.10;82.10;;;;;;2602919;54;20018;31
2023/06/12 08:17:15;;;;;;;4.95;1.63;;;25.00;82.20;;;;;;2603591;54;20027;31
2023/06/12 08:19:54;;;;;;;3.97;2.17;;;24.80;82.20;;;;;;2773087;31;20615;31
2023/06/12 08:22:29;;;;;;;9.85;2.03;;;24.40;82.20;;;;;;2701804;39;20392;31
2023/06/12 08:25:05;;;;;;;4.53;2.15;;;24.20;83.50;;;;;;2621698;46;20085;31
2023/06/12 08:27:41;;;;;;;6.30;2.10;;;23.90;83.60;;;;;;2603376;54;20031;31
2023/06/12 08:30:15;;;;;;;;;;;23.80;84.70;;;;;;2621994;46;21180;31
2023/06/12 08:32:50;;;;;;;5.85;2.30;;;23.70;86.00;;;;;;2603643;54;19938;31
2023/06/12 08:35:28;;;;;;;4.47;2.25;;;23.70;86.60;;;;;;2603604;54;20784;31
2023/06/12 08:38:03;;;;;;;9.47;3.17;;;23.90;88.10;;;;;;2603322;54;20030;31
2023/06/12 08:40:38;;;;;;;4.27;2.00;;;23.90;87.50;;;;;;2603056;54;20601;31
2023/06/12 08:43:13;;;;;;;5.13;2.00;;;24.00;88.90;;;;;;2602675;54;21123;31
2023/06/12 08:45:49;;;;;;;5.65;2.28;;;23.90;88.70;;;;;;2603327;54;20085;31
2023/06/12 08:48:23;;;;;;;2.90;2.40;;;24.00;86.90;;;;;;2603366;54;20054;31
2023/06/12 08:51:01;;;;;;;3.17;1.80;;;24.40;87.10;;;;;;2622136;46;20101;31
2023/06/12 08:53:37;;;;;;;5.80;2.40;;;24.80;84.50;;;;;;2603494;54;20034;31
2023/06/12 08:56:11;;;;;;;5.55;1.75;;;24.80;83.50;;;;;;2701701;39;20636;31
2023/06/12 08:58:47;;;;;;;5.17;2.17;;;24.80;84.10;;;;;;2603164;54;20628;31
2023/06/12 09:01:21;;;;;;;;;;;24.90;82.40;;;;;;2603521;54;20121;31
2023/06/12 09:03:55;;;;;;;4.85;1.98;;;24.90;82.00;;;;;;2621566;46;22271;31
2023/06/12 09:06:34;;;;;;;5.10;2.47;;;25.10;83.70;;;;;;2603404;54;20100;31
2023/06/12 09:09:10;;;;;;;4.72;2.08;;;25.40;84.10;;;;;;2603169;54;20953;31
2023/06/12 09:11:45;;;;;;;5.15;1.95;;;25.60;82.40;;;;;;2603360;54;20838;31
2023/06/12 09:14:22;;;;;;;7.18;2.17;;;25.60;81.50;;;;;;2603285;54;20924;31
2023/06/12 09:16:57;;;;;;;4.63;1.90;;;25.60;80.80;;;;;;2603262;54;20033;31
2023/06/12 09:19:38;;;;;;;7.07;2.13;;;25.50;80.90;;;;;;2603278;54;20900;31
2023/06/12 09:22:15;;;;;;;2.10;1.80;;;25.20;80.90;;;;;;2603139;54;20949;31
2023/06/12 09:24:51;;;;;;;4.53;2.35;;;25.10;80.10;;;;;;2603391;54;20022;31
2023/06/12 09:27:25;;;;;;;3.65;1.90;;;24.90;80.50;;;;;;2603294;54;20894;31
2023/06/12 09:30:04;;;;;;;4.20;2.28;;;24.70;80.10;;;;;;2602985;54;20054;31
2023/06/12 09:32:39;;;;;;;6.55;2.85;;;24.60;80.50;;;;;;2621860;46;20858;31
2023/06/12 09:35:14;;;;;;;7.18;2.13;;;25.00;81.80;;;;;;2603168;54;20919;31
2023/06/12 09:37:52;;;;;;;6.88;2.60;;;25.00;81.30;;;;;;2621929;46;20030;31
2023/06/12 09:40:27;;;;;;;2.70;1.80;;;24.90;82.00;;;;;;2603240;54;20027;31
2023/06/12 09:43:02;;;;;;;5.33;2.40;;;25.00;83.00;;;;;;2773141;31;20592;31
2023/06/12 09:45:37;;;;;;;5.70;2.30;;;25.20;82.70;;;;;;2603242;54;20906;31
2023/06/12 09:48:12;;;;;;;10.15;2.28;;;25.30;81.70;;;;;;2603026;54;20881;31
2023/06/12 09:50:47;;;;;;;6.38;1.98;;;25.10;80.70;;;;;;2701684;39;20503;31
2023/06/12 09:53:25;;;;;;;6.88;2.42;;;24.90;81.70;;;;;;2622101;46;20760;31
2023/06/12 09:56:01;;;;;;;2.60;2.00;;;24.70;80.30;;;;;;2720105;39;20489;31
2023/06/12 09:58:38;;;;;;;2.78;1.90;;;24.40;81.10;;;;;;2603045;54;20026;31
2023/06/12 10:01:14;;;;;;;2.90;1.80;;;24.30;81.70;;;;;;2701567;39;20602;31
2023/06/12 10:03:49;;;;;;;3.58;2.03;;;24.20;82.50;;;;;;2602857;54;20107;31
2023/06/12 10:06:24;;;;;;;4.75;2.10;;;24.20;82.20;;;;;;2621524;46;20026;31
2023/06/12 10:09:02;;;;;;;3.70;2.20;;;24.30;82.90;;;;;;2603178;54;20869;31
2023/06/12 10:11:37;;;;;;;3.65;2.42;;;24.70;83.20;;;;;;2603235;54;20947;31
2023/06/12 10:14:13;;;;;;;4.23;2.87;;;24.80;83.10;;;;;;2602990;54;20557;31
2023/06/12 10:16:48;;;;;;;4.55;2.20;;;24.60;81.00;;;;;;2602957;54;20976;31
2023/06/12 10:19:23;;;;;;;6.07;2.17;;;24.50;79.10;;;;;;2603143;54;20565;31
2023/06/12 10:21:58;;;;;;;7.82;2.20;;;24.40;80.20;;;;;;2773066;31;20654;31
2023/06/12 10:24:36;;;;;;;5.78;2.60;;;24.30;80.90;;;;;;2621671;46;20915;31
2023/06/12 10:27:11;;;;;;;5.43;2.78;;;24.30;82.40;;;;;;2603127;54;20901;31
2023/06/12 10:29:46;;;;;;;8.23;2.58;;;24.30;82.80;;;;;;2602979;54;20053;31
2023/06/12 10:32:21;;;;;;;3.70;2.45;;;24.30;81.50;;;;;;2602890;54;20038;31
2023/06/12 10:34:56;;;;;;;5.25;2.53;;;24.30;81.00;;;;;;2602949;54;20790;31
2023/06/12 10:37:32;;;;;;;3.25;2.35;;;24.20;80.80;;;;;;2603227;54;20573;31
2023/06/12 10:40:16;;;;;;;;;;;24.00;80.10;;;;;;2621748;46;20053;31
2023/06/12 10:43:07;;;;;;;4.85;2.35;;;24.10;80.20;;;;;;2602989;54;20013;31
2023/06/12 10:45:43;;;;;;;8.05;2.75;;;24.30;79.70;;;;;;2602837;54;20026;31
2023/06/12 10:48:19;;;;;;;4.88;2.03;;;24.40;80.80;;;;;;2621656;46;20911;31
2023/06/12 10:50:56;;;;;;;4.90;1.90;;;24.40;80.30;;;;;;2621506;46;20849;31
2023/06/12 10:53:32;;;;;;;4.38;1.80;;;24.50;80.00;;;;;;2602907;54;20791;31
2023/06/12 10:56:08;;;;;;;;;;;24.60;80.10;;;;;;2701738;39;20578;31
2023/06/12 10:58:43;;;;;;;3.03;2.28;;;24.80;79.10;;;;;;2602835;54;20744;31
2023/06/12 11:01:17;;;;;;;4.20;2.20;;;25.00;80.10;;;;;;2621272;46;22378;31
2023/06/12 11:03:51;;;;;;;3.92;2.08;;;25.20;77.70;;;;;;2701624;39;20488;31
2023/06/12 11:06:28;;;;;;;4.32;1.95;;;25.30;76.20;;;;;;2602796;54;20037;31
2023/06/12 11:09:11;;;;;;;3.92;2.30;;;25.50;76.90;;;;;;2602964;54;20896;31
2023/06/12 11:11:53;;;;;;;3.28;2.05;;;25.60;75.80;;;;;;2602860;54;21000;31
2023/06/12 11:14:28;;;;;;;5.70;2.38;;;25.70;75.70;;;;;;2602688;54;20185;31
2023/06/12 11:17:03;;;;;;;5.70;2.20;;;25.80;75.90;;;;;;2602483;54;20902;31
2023/06/12 11:19:39;;;;;;;5.10;2.17;;;25.60;74.30;;;;;;2621181;46;20258;31
2023/06/12 11:22:15;;;;;;;4.45;1.92;;;25.60;73.60;;;;;;2602949;54;20616;31
2023/06/12 11:24:50;;;;;;;4.03;1.77;;;25.60;74.70;;;;;;2602843;54;20030;31
2023/06/12 11:27:30;;;;;;;4.35;2.17;;;25.60;75.70;;;;;;2602986;54;20034;31
2023/06/12 11:30:11;;;;;;;4.97;1.77;;;25.60;74.70;;;;;;2602652;54;21462;31
2023/06/12 11:33:10;;;;;;;7.32;2.53;;;25.60;73.00;;;;;;2620943;46;20823;31
2023/06/12 11:35:45;;;;;;;4.93;2.08;;;25.60;73.30;;;;;;2603034;54;20850;31
2023/06/12 11:38:21;;;;;;;3.55;1.70;;;25.70;73.80;;;;;;2620985;46;20026;31
2023/06/12 11:40:59;;;;;;;5.72;1.98;;;25.70;73.00;;;;;;2602789;54;21465;31
2023/06/12 11:43:35;;;;;;;4.00;2.35;;;25.90;72.50;;;;;;2620985;46;21884;31
2023/06/12 11:46:09;;;;;;;4.35;1.83;;;25.90;71.40;;;;;;2602779;54;20909;31
2023/06/12 11:48:45;;;;;;;4.25;2.03;;;25.90;72.10;;;;;;2602955;54;20093;31
2023/06/12 11:51:22;;;;;;;4.43;2.17;;;25.90;70.10;;;;;;2602845;54;20914;31
2023/06/12 11:54:00;;;;;;;4.32;1.80;;;25.90;72.20;;;;;;2602897;54;20048;31
2023/06/12 11:56:35;;;;;;;3.55;1.95;;;26.00;70.70;;;;;;2602721;54;20037;31
2023/06/12 11:59:16;;;;;;;3.00;1.83;;;25.90;69.50;;;;;;2602651;54;20061;31
2023/06/12 12:01:52;;;;;;;4.65;2.00;;;25.70;71.30;;;;;;2602713;54;20910;31
2023/06/12 12:04:28;;;;;;;3.95;2.33;;;25.60;72.00;;;;;;2602702;54;20057;31
2023/06/12 12:07:03;;;;;;;3.63;1.52;;;25.60;71.70;;;;;;2602625;54;20932;31
2023/06/12 12:09:38;;;;;;;3.25;1.90;;;25.40;72.60;;;;;;2602887;54;20038;31
2023/06/12 12:12:14;;;;;;;7.95;2.20;;;25.40;73.60;;;;;;2602680;54;20896;31
2023/06/12 12:14:54;;;;;;;6.40;2.00;;;25.30;72.00;;;;;;2602548;54;20781;31
2023/06/12 12:17:34;;;;;;;2.50;1.90;;;25.30;73.50;;;;;;2602529;54;20026;31
2023/06/12 12:20:10;;;;;;;2.63;2.13;;;25.20;74.40;;;;;;2602605;54;20073;31
2023/06/12 12:22:46;;;;;;;3.05;1.95;;;25.30;72.40;;;;;;2602874;54;20105;31
2023/06/12 12:25:22;;;;;;;3.53;2.33;;;25.30;70.40;;;;;;2602864;54;20115;31
2023/06/12 12:27:59;;;;;;;6.40;2.35;;;25.40;70.30;;;;;;2602778;54;20033;31
2023/06/12 12:30:36;;;;;;;3.70;2.08;;;25.50;71.50;;;;;;2620766;47;22625;31
2023/06/12 12:33:11;;;;;;;4.45;2.00;;;25.40;70.70;;;;;;2621101;47;22311;31
2023/06/12 12:35:46;;;;;;;6.20;2.30;;;25.40;70.30;;;;;;2602436;54;20867;31
2023/06/12 12:38:21;;;;;;;3.72;2.30;;;25.40;70.00;;;;;;2621144;47;20905;31
2023/06/12 12:40:56;;;;;;;;;;;25.40;71.50;;;;;;2602891;54;20930;31
2023/06/12 12:43:31;;;;;;;5.10;2.10;;;25.50;70.70;;;;;;2602348;54;19934;31
2023/06/12 12:46:06;;;;;;;3.57;2.37;;;25.60;69.80;;;;;;2620835;47;22306;31
2023/06/12 12:48:41;;;;;;;4.95;2.28;;;25.50;70.40;;;;;;2602286;54;20259;31
2023/06/12 12:51:16;;;;;;;4.22;2.00;;;25.50;70.20;;;;;;2603056;54;20863;31
2023/06/12 12:53:52;;;;;;;4.87;1.90;;;25.40;71.00;;;;;;2621828;46;20078;31
2023/06/12 12:56:25;;;;;;;3.42;1.80;;;25.40;70.00;;;;;;2603374;54;21143;31
2023/06/12 12:58:59;;;;;;;3.63;1.88;;;25.30;69.60;;;;;;2603478;54;20870;31
2023/06/12 13:01:37;;;;;;;7.60;2.10;;;25.20;69.60;;;;;;2603292;54;20056;31
2023/06/12 13:04:13;;;;;;;7.35;2.35;;;25.00;69.60;;;;;;2603231;54;20952;31
2023/06/12 13:06:47;;;;;;;7.88;2.30;;;25.00;70.00;;;;;;2621681;46;20033;31
2023/06/12 13:09:22;;;;;;;5.20;1.87;;;24.90;69.30;;;;;;2603168;54;20907;31
2023/06/12 13:11:55;;;;;;;5.45;2.80;;;24.80;68.70;;;;;;2621751;46;22384;31
2023/06/12 13:14:32;;;;;;;4.15;1.95;;;24.90;68.90;;;;;;2603303;54;20908;31
2023/06/12 13:17:09;;;;;;;4.38;1.80;;;24.90;68.70;;;;;;2603147;54;20863;31
2023/06/12 13:19:44;;;;;;;3.35;1.92;;;25.00;68.50;;;;;;2603211;54;20841;31
2023/06/12 13:22:19;;;;;;;4.72;1.60;;;25.00;68.90;;;;;;2603219;54;20156;31
2023/06/12 13:24:54;;;;;;;4.03;1.60;;;25.10;68.70;;;;;;2603260;54;20768;31
2023/06/12 13:27:30;;;;;;;6.33;1.90;;;25.30;69.50;;;;;;2603101;54;20053;31
2023/06/12 13:30:04;;;;;;;3.20;1.80;;;25.40;68.20;;;;;;2621731;46;20093;31
2023/06/12 13:32:42;;;;;;;5.22;2.00;;;25.30;67.20;;;;;;2603362;54;20247;31
2023/06/12 13:35:18;;;;;;;7.10;1.88;;;25.30;67.40;;;;;;2603165;54;20731;31
2023/06/12 13:37:53;;;;;;;;;;;25.10;66.60;;;;;;2603268;54;20037;31
2023/06/12 13:40:27;;;;;;;2.97;1.70;;;25.10;67.90;;;;;;2603204;54;20839;31
2023/06/12 13:43:02;;;;;;;6.10;1.80;;;25.00;67.00;;;;;;2603370;54;20023;31
2023/06/12 13:45:37;;;;;;;2.35;1.40;;;24.90;68.10;;;;;;2603317;54;20875;31
2023/06/12 13:48:16;;;;;;;3.30;1.55;;;24.90;65.40;;;;;;2603125;54;20116;31